createdAt,value
2023-02-19T03:06:54.839Z,16.73
2023-02-19T03:09:30.410Z,10.98
2023-02-19T03:12:21.253Z,11.75
2023-02-19T03:15:10.090Z,10.70
2023-02-19T03:18:15.269Z,12.77
2023-02-19T03:20:47.487Z,13.32
2023-02-19T03:23:15.751Z,9.40
2023-02-19T03:26:01.855Z,11.27
2023-02-19T03:29:03.896Z,10.13
2023-02-19T03:31:33.474Z,11.07
2023-02-19T03:34:06.282Z,16.25
2023-02-19T03:36:38.259Z,11.10
2023-02-19T03:39:07.972Z,10.40
2023-02-19T03:41:55.740Z,9.90
2023-02-19T03:44:28.017Z,9.35
2023-02-19T03:47:05.378Z,9.73
2023-02-19T03:49:49.977Z,9.40
2023-02-19T03:52:39.617Z,11.05
2023-02-19T03:55:10.231Z,11.35
2023-02-19T03:57:45.006Z,11.23
2023-02-19T04:00:32.734Z,12.73
2023-02-19T04:03:18.272Z,11.93
2023-02-19T04:05:50.278Z,10.65
2023-02-19T04:10:53.116Z,10.75
2023-02-19T04:13:45.094Z,11.02
2023-02-19T04:16:18.770Z,10.93
2023-02-19T04:18:49.073Z,10.82
2023-02-19T04:21:16.969Z,11.43
2023-02-19T04:23:45.880Z,13.63
2023-02-19T04:26:15.036Z,11.68
2023-02-19T04:28:44.348Z,11.10
2023-02-19T04:31:12.667Z,12.55
2023-02-19T04:33:40.505Z,10.90
2023-02-19T04:36:11.043Z,10.15
2023-02-19T04:38:39.261Z,10.65
2023-02-19T04:41:06.982Z,11.35
2023-02-19T04:43:34.816Z,10.13
2023-02-19T04:46:03.103Z,9.10
2023-02-19T04:48:32.078Z,9.57
2023-02-19T04:50:59.776Z,11.40
2023-02-19T04:53:27.671Z,10.57
2023-02-19T04:55:55.350Z,10.82
2023-02-19T04:58:23.129Z,9.20
2023-02-19T05:00:53.861Z,10.98
2023-02-19T05:03:21.638Z,8.95
2023-02-19T05:05:49.229Z,10.15
2023-02-19T05:08:17.016Z,8.85
2023-02-19T05:10:44.625Z,10.88
2023-02-19T05:13:12.318Z,11.75
2023-02-19T05:15:40.204Z,7.97
2023-02-19T05:18:07.970Z,10.77
2023-02-19T05:20:36.743Z,9.40
2023-02-19T05:23:04.443Z,8.27
2023-02-19T05:25:32.208Z,9.95
2023-02-19T05:28:17.113Z,9.52
2023-02-19T05:30:53.202Z,8.45
2023-02-19T05:33:23.070Z,12.27
2023-02-19T05:35:53.281Z,9.18
2023-02-19T05:38:21.521Z,8.60
2023-02-19T05:40:49.597Z,9.05
2023-02-19T05:43:17.572Z,9.18
2023-02-19T05:45:45.300Z,10.75
2023-02-19T05:48:13.067Z,10.25
2023-02-19T05:50:41.016Z,12.20
2023-02-19T05:53:14.778Z,8.85
2023-02-19T05:55:42.504Z,9.95
2023-02-19T05:58:10.266Z,9.95
2023-02-19T06:00:37.912Z,8.95
2023-02-19T06:03:05.574Z,10.55
2023-02-19T06:05:33.243Z,10.45
2023-02-19T06:08:01.197Z,9.70
2023-02-19T06:10:28.907Z,10.90
2023-02-19T06:12:56.544Z,10.35
2023-02-19T06:15:24.326Z,8.93
2023-02-19T06:17:52.090Z,9.75
2023-02-19T06:20:19.933Z,12.55
2023-02-19T06:22:50.368Z,10.48
2023-02-19T06:25:18.999Z,9.60
2023-02-19T06:27:46.677Z,10.63
2023-02-19T06:30:14.480Z,10.50
2023-02-19T06:32:42.707Z,10.63
2023-02-19T06:35:10.624Z,9.90
2023-02-19T06:37:38.339Z,10.43
2023-02-19T06:40:06.559Z,11.90
2023-02-19T06:42:34.299Z,10.88
2023-02-19T06:45:02.119Z,10.60
2023-02-19T06:47:33.452Z,11.13
2023-02-19T06:50:01.207Z,11.02
2023-02-19T06:52:28.856Z,9.50
2023-02-19T06:54:56.587Z,10.70
2023-02-19T06:57:24.460Z,10.57
2023-02-19T06:59:52.287Z,10.65
2023-02-19T07:02:19.994Z,10.43
2023-02-19T07:04:47.717Z,9.63
2023-02-19T07:07:15.398Z,9.85
2023-02-19T07:09:43.149Z,10.10
2023-02-19T07:12:10.754Z,10.60
2023-02-19T07:14:38.458Z,9.45
2023-02-19T07:17:06.255Z,8.98
2023-02-19T07:19:35.895Z,9.23
2023-02-19T07:22:03.573Z,10.35
2023-02-19T07:24:31.501Z,9.48
2023-02-19T07:26:59.212Z,9.95
2023-02-19T07:29:27.277Z,9.50
2023-02-19T07:31:55.405Z,10.18
2023-02-19T07:34:23.256Z,9.45
2023-02-19T07:36:50.954Z,9.20
2023-02-19T07:39:18.823Z,8.55
2023-02-19T07:41:46.444Z,10.05
2023-02-19T07:44:26.447Z,8.57
2023-02-19T07:46:54.096Z,8.18
2023-02-19T07:49:21.757Z,8.00
2023-02-19T07:51:49.496Z,9.02
2023-02-19T07:54:17.233Z,9.02
2023-02-19T07:56:45.642Z,9.70
2023-02-19T07:59:13.699Z,8.85
2023-02-19T08:01:59.958Z,9.73
2023-02-19T08:04:27.696Z,9.07
2023-02-19T08:06:55.556Z,9.88
2023-02-19T08:09:23.412Z,16.27
2023-02-19T08:12:10.379Z,22.75
2023-02-19T08:14:38.306Z,22.98
2023-02-19T08:17:10.013Z,22.50
2023-02-19T08:19:37.755Z,23.40
2023-02-19T08:22:05.909Z,20.73
2023-02-19T08:24:34.155Z,21.75
2023-02-19T08:27:02.046Z,22.02
2023-02-19T08:29:29.928Z,22.10
2023-02-19T08:31:57.688Z,20.63
2023-02-19T08:34:25.599Z,19.40
2023-02-19T08:36:53.281Z,18.15
2023-02-19T08:39:21.327Z,16.35
2023-02-19T08:41:48.992Z,18.33
2023-02-19T08:44:16.833Z,15.73
2023-02-19T08:46:44.894Z,17.52
2023-02-19T08:49:12.564Z,15.40
2023-02-19T08:51:40.304Z,15.73
2023-02-19T08:54:07.979Z,15.88
2023-02-19T08:56:35.701Z,13.25
2023-02-19T08:59:03.341Z,14.80
2023-02-19T09:01:31.220Z,15.00
2023-02-19T09:03:59.192Z,15.18
2023-02-19T09:06:26.972Z,13.88
2023-02-19T09:08:54.794Z,12.13
2023-02-19T09:11:22.491Z,13.00
2023-02-19T09:13:50.213Z,12.30
2023-02-19T09:16:17.877Z,13.05
2023-02-19T09:18:46.055Z,11.18
2023-02-19T09:21:13.929Z,12.52
2023-02-19T09:23:41.784Z,12.13
2023-02-19T09:26:11.660Z,12.82
2023-02-19T09:28:42.066Z,11.70
2023-02-19T09:31:13.825Z,12.30
2023-02-19T09:33:49.106Z,9.85
2023-02-19T09:36:18.781Z,10.43
2023-02-19T09:38:46.739Z,9.52
2023-02-19T09:41:30.135Z,11.80
2023-02-19T09:43:59.080Z,9.82
2023-02-19T09:46:33.767Z,10.02
2023-02-19T09:49:08.419Z,10.10
2023-02-19T09:51:37.579Z,9.50
2023-02-19T09:54:07.038Z,10.38
2023-02-19T09:56:35.059Z,9.55
2023-02-19T09:59:03.087Z,10.05
2023-02-19T10:01:34.232Z,8.43
2023-02-19T10:04:01.951Z,8.70
2023-02-19T10:06:30.432Z,8.77
2023-02-19T10:09:23.960Z,7.47
2023-02-19T10:11:52.279Z,7.28
2023-02-19T10:14:27.643Z,9.00
2023-02-19T10:16:57.501Z,9.60
2023-02-19T10:19:25.363Z,9.73
2023-02-19T10:21:53.099Z,10.65
2023-02-19T10:24:22.385Z,9.45
2023-02-19T10:26:50.703Z,8.25
2023-02-19T10:29:19.891Z,14.30
2023-02-19T10:31:47.838Z,7.63
2023-02-19T10:34:22.426Z,8.18
2023-02-19T10:36:51.782Z,7.45
2023-02-19T10:39:22.409Z,9.07
2023-02-19T10:41:50.973Z,7.63
2023-02-19T10:44:22.277Z,7.70
2023-02-19T10:46:52.443Z,10.02
2023-02-19T10:49:32.330Z,7.40
2023-02-19T10:52:03.078Z,9.35
2023-02-19T10:54:33.171Z,8.75
2023-02-19T10:57:25.492Z,7.28
2023-02-19T10:59:57.855Z,8.90
2023-02-19T11:02:26.270Z,7.50
2023-02-19T11:05:20.013Z,6.60
2023-02-19T11:07:50.857Z,7.45
2023-02-19T11:10:44.492Z,8.35
2023-02-19T11:13:19.914Z,6.57
2023-02-19T11:15:53.434Z,6.28
2023-02-19T11:18:22.895Z,6.63
2023-02-19T11:20:55.946Z,6.22
2023-02-19T11:23:36.861Z,6.80
2023-02-19T11:26:07.992Z,6.82
2023-02-19T11:28:39.942Z,7.15
2023-02-19T11:31:20.122Z,6.78
2023-02-19T11:33:59.998Z,6.75
2023-02-19T11:36:33.601Z,6.38
2023-02-19T11:39:15.841Z,7.03
2023-02-19T11:41:46.679Z,7.90
2023-02-19T11:44:38.193Z,6.00
2023-02-19T11:47:25.865Z,6.10
2023-02-19T11:50:21.851Z,5.97
2023-02-19T11:53:01.910Z,6.70
2023-02-19T11:55:35.926Z,5.63
2023-02-19T11:58:25.486Z,6.65
2023-02-19T12:01:05.104Z,5.60
2023-02-19T12:03:41.786Z,5.40
2023-02-19T12:06:12.631Z,5.10
2023-02-19T12:08:43.204Z,5.15
2023-02-19T12:11:29.367Z,5.28
2023-02-19T12:14:25.691Z,6.40
2023-02-19T12:17:05.561Z,7.07
2023-02-19T12:19:57.770Z,6.90
2023-02-19T12:22:33.874Z,4.70
2023-02-19T12:25:23.953Z,5.07
2023-02-19T12:28:05.280Z,6.22
2023-02-19T12:31:11.786Z,5.03
2023-02-19T12:34:12.551Z,6.13
2023-02-19T12:37:01.604Z,5.88
2023-02-19T12:39:55.738Z,6.90
2023-02-19T12:42:50.978Z,5.82
2023-02-19T12:45:27.380Z,6.50
2023-02-19T12:48:02.088Z,5.32
2023-02-19T12:50:31.426Z,7.05
2023-02-19T12:53:03.176Z,5.38
2023-02-19T12:55:36.684Z,4.88
2023-02-19T12:58:06.274Z,4.03
2023-02-19T13:00:39.591Z,4.72
2023-02-19T13:03:24.635Z,7.45
2023-02-19T13:06:15.794Z,6.93
2023-02-19T13:09:06.466Z,8.30
2023-02-19T13:11:43.945Z,12.98
2023-02-19T13:14:14.479Z,6.18
2023-02-19T13:16:47.373Z,6.07
2023-02-19T13:19:15.402Z,9.60
2023-02-19T13:22:03.547Z,5.57
2023-02-19T13:24:37.003Z,4.93
2023-02-19T13:27:08.677Z,5.35
2023-02-19T13:29:54.643Z,6.78
2023-02-19T13:32:48.403Z,5.95
2023-02-19T13:35:40.823Z,5.47
2023-02-19T13:40:42.824Z,5.50
2023-02-19T13:43:37.285Z,5.30
2023-02-19T13:46:14.474Z,4.45
2023-02-19T13:48:44.606Z,4.40
2023-02-19T13:51:19.746Z,4.63
2023-02-19T13:53:50.591Z,4.50
2023-02-19T13:56:31.450Z,4.82
2023-02-19T13:59:03.039Z,6.05
2023-02-19T14:01:50.410Z,6.18
2023-02-19T14:04:40.315Z,4.80
2023-02-19T14:07:09.073Z,4.32
2023-02-19T14:09:40.243Z,4.60
2023-02-19T14:12:08.064Z,5.40
2023-02-19T14:14:45.335Z,4.97
2023-02-19T14:17:40.834Z,5.03
2023-02-19T14:20:17.912Z,4.40
2023-02-19T14:22:50.351Z,4.18
2023-02-19T14:25:35.868Z,5.22
2023-02-19T14:28:09.574Z,5.28
2023-02-19T14:31:11.259Z,4.63
2023-02-19T14:33:44.081Z,4.73
2023-02-19T14:36:33.616Z,4.47
2023-02-19T14:39:05.560Z,3.97
2023-02-19T14:41:34.433Z,5.07
2023-02-19T14:44:02.536Z,4.22
2023-02-19T14:46:38.128Z,5.13
2023-02-19T14:49:12.556Z,5.13
2023-02-19T14:51:44.288Z,4.28
2023-02-19T14:54:18.970Z,4.97
2023-02-19T14:56:52.004Z,4.57
2023-02-19T14:59:26.329Z,5.05
2023-02-19T15:02:03.057Z,4.13
2023-02-19T15:04:37.198Z,4.97
2023-02-19T15:07:09.013Z,4.25
2023-02-19T15:09:40.729Z,4.55
2023-02-19T15:12:13.593Z,4.55
2023-02-19T15:14:41.567Z,5.05
2023-02-19T15:17:15.395Z,5.05
2023-02-19T15:19:43.885Z,3.95
2023-02-19T15:22:20.654Z,3.65
2023-02-19T15:24:48.819Z,3.85
2023-02-19T15:27:22.756Z,3.53
2023-02-19T15:29:53.655Z,4.50
2023-02-19T15:32:26.400Z,4.13
2023-02-19T15:35:02.051Z,3.30
2023-02-19T15:37:33.303Z,5.05
2023-02-19T15:40:04.013Z,5.15
2023-02-19T15:42:34.943Z,3.42
2023-02-19T15:45:25.120Z,3.20
2023-02-19T15:48:09.882Z,4.47
2023-02-19T15:50:42.075Z,4.00
2023-02-19T15:56:04.941Z,3.83
2023-02-19T15:58:40.783Z,4.07
2023-02-19T16:01:29.217Z,4.28
2023-02-19T16:03:57.557Z,5.03
2023-02-19T16:06:26.430Z,4.82
2023-02-19T16:09:06.786Z,3.78
2023-02-19T16:11:35.903Z,5.00
2023-02-19T16:14:25.281Z,5.03
2023-02-19T16:16:56.038Z,4.68
2023-02-19T16:19:28.475Z,4.65
2023-02-19T16:21:57.009Z,4.30
2023-02-19T16:24:54.253Z,5.00
2023-02-19T16:27:42.147Z,4.05
2023-02-19T16:30:25.733Z,5.75
2023-02-19T16:33:35.115Z,4.20
2023-02-19T16:36:30.286Z,3.85
2023-02-19T16:39:03.692Z,4.00
2023-02-19T16:41:31.614Z,4.30
2023-02-19T16:44:01.125Z,4.38
2023-02-19T16:46:29.685Z,4.28
2023-02-19T16:48:57.474Z,5.68
2023-02-19T16:51:26.852Z,5.50
2023-02-19T16:53:54.695Z,4.28
2023-02-19T16:56:23.264Z,4.68
2023-02-19T16:58:51.084Z,4.05
2023-02-19T17:01:18.783Z,3.92
2023-02-19T17:03:47.812Z,4.53
2023-02-19T17:06:16.184Z,4.63
2023-02-19T17:08:44.554Z,3.58
2023-02-19T17:11:14.991Z,4.10
2023-02-19T17:13:45.182Z,4.57
2023-02-19T17:16:27.853Z,4.68
2023-02-19T17:18:55.999Z,5.13
2023-02-19T17:21:26.065Z,4.13
2023-02-19T17:23:54.513Z,5.40
2023-02-19T17:26:25.080Z,4.75
2023-02-19T17:28:52.888Z,3.88
2023-02-19T17:31:20.757Z,4.07
2023-02-19T17:33:48.717Z,4.72
2023-02-19T17:36:30.267Z,4.78
2023-02-19T17:38:59.438Z,5.05
2023-02-19T17:41:27.684Z,4.03
2023-02-19T17:43:55.679Z,4.47
2023-02-19T17:46:26.764Z,5.90
2023-02-19T17:48:55.281Z,5.05
2023-02-19T17:51:23.252Z,5.18
2023-02-19T17:53:50.921Z,4.93
2023-02-19T17:56:21.397Z,6.40
2023-02-19T17:58:50.091Z,6.43
2023-02-19T18:01:17.878Z,6.35
2023-02-19T18:03:46.013Z,6.35
2023-02-19T18:06:13.916Z,6.65
2023-02-19T18:08:52.213Z,6.63
2023-02-19T18:11:22.250Z,5.90
2023-02-19T18:13:51.244Z,6.32
2023-02-19T18:16:19.284Z,7.45
2023-02-19T18:18:47.066Z,7.20
2023-02-19T18:21:15.010Z,6.13
2023-02-19T18:23:42.842Z,7.57
2023-02-19T18:26:11.087Z,7.10
2023-02-19T18:28:39.015Z,7.55
2023-02-19T18:31:07.145Z,6.45
2023-02-19T18:33:35.558Z,7.05
2023-02-19T18:36:04.269Z,8.23
2023-02-19T18:38:31.971Z,7.78
2023-02-19T18:40:59.752Z,7.05
2023-02-19T18:43:27.466Z,7.85
2023-02-19T18:45:55.165Z,10.30
2023-02-19T18:48:22.888Z,8.93
2023-02-19T18:50:50.647Z,10.90
2023-02-19T18:53:18.472Z,7.75
2023-02-19T18:55:46.140Z,8.25
2023-02-19T18:58:13.890Z,8.77
2023-02-19T19:00:41.526Z,7.82
2023-02-19T19:03:09.448Z,10.02
2023-02-19T19:05:37.241Z,8.15
2023-02-19T19:08:05.394Z,7.72
2023-02-19T19:10:33.026Z,7.65
2023-02-19T19:13:00.826Z,7.97
2023-02-19T19:15:28.462Z,9.05
2023-02-19T19:17:56.332Z,8.75
2023-02-19T19:20:24.146Z,8.70
2023-02-19T19:22:53.126Z,7.82
2023-02-19T19:25:23.095Z,6.60
2023-02-19T19:27:51.983Z,8.35
2023-02-19T19:30:20.737Z,9.07
2023-02-19T19:32:49.808Z,8.50
